sensor_id;sensor_type;location;lat;lon;timestamp;P1;durP1;ratioP1;P2;durP2;ratioP2
25752;SDS011;13600;50.816;4.416;2024-02-15T00:00:41;21.48;;;5.57;;
25752;SDS011;13600;50.816;4.416;2024-02-15T00:03:08;19.10;;;5.60;;
25752;SDS011;13600;50.816;4.416;2024-02-15T00:05:38;19.05;;;5.53;;
25752;SDS011;13600;50.816;4.416;2024-02-15T00:08:04;18.10;;;5.30;;
25752;SDS011;13600;50.816;4.416;2024-02-15T00:10:31;19.33;;;5.05;;
25752;SDS011;13600;50.816;4.416;2024-02-15T00:12:58;16.88;;;5.65;;
25752;SDS011;13600;50.816;4.416;2024-02-15T00:15:24;17.98;;;4.97;;
25752;SDS011;13600;50.816;4.416;2024-02-15T00:17:49;19.35;;;5.32;;
25752;SDS011;13600;50.816;4.416;2024-02-15T00:20:18;19.23;;;4.53;;
25752;SDS011;13600;50.816;4.416;2024-02-15T00:22:45;15.73;;;3.92;;
25752;SDS011;13600;50.816;4.416;2024-02-15T00:25:12;17.42;;;4.50;;
25752;SDS011;13600;50.816;4.416;2024-02-15T00:27:39;23.15;;;4.28;;
25752;SDS011;13600;50.816;4.416;2024-02-15T00:30:04;21.67;;;4.82;;
25752;SDS011;13600;50.816;4.416;2024-02-15T00:32:33;20.65;;;4.35;;
25752;SDS011;13600;50.816;4.416;2024-02-15T00:34:59;17.05;;;4.50;;
25752;SDS011;13600;50.816;4.416;2024-02-15T00:37:24;18.20;;;3.90;;
25752;SDS011;13600;50.816;4.416;2024-02-15T00:39:50;18.63;;;4.53;;
25752;SDS011;13600;50.816;4.416;2024-02-15T00:42:16;17.73;;;4.32;;
25752;SDS011;13600;50.816;4.416;2024-02-15T00:44:41;14.27;;;4.15;;
25752;SDS011;13600;50.816;4.416;2024-02-15T00:47:09;13.70;;;4.30;;
25752;SDS011;13600;50.816;4.416;2024-02-15T00:49:39;11.93;;;3.53;;
25752;SDS011;13600;50.816;4.416;2024-02-15T00:52:07;19.40;;;4.20;;
25752;SDS011;13600;50.816;4.416;2024-02-15T00:54:39;12.05;;;3.70;;
25752;SDS011;13600;50.816;4.416;2024-02-15T00:57:05;18.33;;;3.88;;
25752;SDS011;13600;50.816;4.416;2024-02-15T00:59:30;17.27;;;3.90;;
25752;SDS011;13600;50.816;4.416;2024-02-15T01:01:56;12.02;;;3.03;;
25752;SDS011;13600;50.816;4.416;2024-02-15T01:04:22;17.75;;;3.08;;
25752;SDS011;13600;50.816;4.416;2024-02-15T01:06:47;14.43;;;3.55;;
25752;SDS011;13600;50.816;4.416;2024-02-15T01:09:13;13.32;;;3.60;;
25752;SDS011;13600;50.816;4.416;2024-02-15T01:11:39;14.15;;;3.40;;
25752;SDS011;13600;50.816;4.416;2024-02-15T01:14:05;11.43;;;3.17;;
25752;SDS011;13600;50.816;4.416;2024-02-15T01:16:31;15.35;;;3.28;;
25752;SDS011;13600;50.816;4.416;2024-02-15T01:18:58;15.48;;;3.25;;
25752;SDS011;13600;50.816;4.416;2024-02-15T01:21:24;12.70;;;2.83;;
25752;SDS011;13600;50.816;4.416;2024-02-15T01:23:49;12.40;;;3.13;;
25752;SDS011;13600;50.816;4.416;2024-02-15T01:26:15;15.40;;;2.97;;
25752;SDS011;13600;50.816;4.416;2024-02-15T01:28:41;14.68;;;2.67;;
25752;SDS011;13600;50.816;4.416;2024-02-15T01:31:08;15.18;;;3.15;;
25752;SDS011;13600;50.816;4.416;2024-02-15T01:33:35;9.82;;;2.50;;
25752;SDS011;13600;50.816;4.416;2024-02-15T01:36:04;11.30;;;2.17;;
25752;SDS011;13600;50.816;4.416;2024-02-15T01:38:30;8.80;;;2.60;;
25752;SDS011;13600;50.816;4.416;2024-02-15T01:40:56;7.78;;;2.15;;
25752;SDS011;13600;50.816;4.416;2024-02-15T01:43:22;18.13;;;3.17;;
25752;SDS011;13600;50.816;4.416;2024-02-15T01:45:47;9.80;;;2.28;;
25752;SDS011;13600;50.816;4.416;2024-02-15T01:48:14;12.68;;;2.67;;
25752;SDS011;13600;50.816;4.416;2024-02-15T01:50:41;14.00;;;3.00;;
25752;SDS011;13600;50.816;4.416;2024-02-15T01:53:09;14.40;;;2.45;;
25752;SDS011;13600;50.816;4.416;2024-02-15T01:55:36;19.48;;;3.50;;
25752;SDS011;13600;50.816;4.416;2024-02-15T01:58:04;11.40;;;3.10;;
25752;SDS011;13600;50.816;4.416;2024-02-15T02:00:30;10.38;;;2.55;;
25752;SDS011;13600;50.816;4.416;2024-02-15T02:02:56;8.57;;;2.40;;
25752;SDS011;13600;50.816;4.416;2024-02-15T02:05:27;9.32;;;2.35;;
25752;SDS011;13600;50.816;4.416;2024-02-15T02:07:54;18.27;;;2.85;;
25752;SDS011;13600;50.816;4.416;2024-02-15T02:10:24;11.13;;;2.03;;
25752;SDS011;13600;50.816;4.416;2024-02-15T02:12:52;15.77;;;2.90;;
25752;SDS011;13600;50.816;4.416;2024-02-15T02:15:18;8.50;;;2.22;;
25752;SDS011;13600;50.816;4.416;2024-02-15T02:17:48;10.38;;;2.38;;
25752;SDS011;13600;50.816;4.416;2024-02-15T02:20:16;13.75;;;2.90;;
25752;SDS011;13600;50.816;4.416;2024-02-15T02:22:44;9.25;;;2.35;;
25752;SDS011;13600;50.816;4.416;2024-02-15T02:25:12;14.15;;;2.75;;
25752;SDS011;13600;50.816;4.416;2024-02-15T02:27:38;8.23;;;2.05;;
25752;SDS011;13600;50.816;4.416;2024-02-15T02:30:05;9.38;;;2.22;;
25752;SDS011;13600;50.816;4.416;2024-02-15T02:32:40;13.40;;;2.20;;
25752;SDS011;13600;50.816;4.416;2024-02-15T02:35:06;11.20;;;2.53;;
25752;SDS011;13600;50.816;4.416;2024-02-15T02:37:32;9.95;;;2.03;;
25752;SDS011;13600;50.816;4.416;2024-02-15T02:40:02;8.65;;;1.88;;
25752;SDS011;13600;50.816;4.416;2024-02-15T02:42:28;6.40;;;2.17;;
25752;SDS011;13600;50.816;4.416;2024-02-15T02:44:54;11.77;;;2.08;;
25752;SDS011;13600;50.816;4.416;2024-02-15T02:47:20;9.88;;;2.17;;
25752;SDS011;13600;50.816;4.416;2024-02-15T02:49:46;10.15;;;2.35;;
25752;SDS011;13600;50.816;4.416;2024-02-15T02:52:12;11.15;;;2.85;;
25752;SDS011;13600;50.816;4.416;2024-02-15T02:54:37;9.93;;;1.95;;
25752;SDS011;13600;50.816;4.416;2024-02-15T02:57:03;9.52;;;2.15;;
25752;SDS011;13600;50.816;4.416;2024-02-15T02:59:31;9.80;;;2.25;;
25752;SDS011;13600;50.816;4.416;2024-02-15T03:01:58;10.20;;;2.33;;
25752;SDS011;13600;50.816;4.416;2024-02-15T03:04:23;10.95;;;2.30;;
25752;SDS011;13600;50.816;4.416;2024-02-15T03:06:49;11.55;;;2.40;;
25752;SDS011;13600;50.816;4.416;2024-02-15T03:09:16;7.18;;;2.20;;
25752;SDS011;13600;50.816;4.416;2024-02-15T03:11:42;7.97;;;2.13;;
25752;SDS011;13600;50.816;4.416;2024-02-15T03:14:09;8.88;;;2.05;;
25752;SDS011;13600;50.816;4.416;2024-02-15T03:16:36;9.00;;;2.30;;
25752;SDS011;13600;50.816;4.416;2024-02-15T03:19:03;11.30;;;2.30;;
25752;SDS011;13600;50.816;4.416;2024-02-15T03:21:29;10.00;;;2.45;;
25752;SDS011;13600;50.816;4.416;2024-02-15T03:23:55;7.72;;;2.17;;
25752;SDS011;13600;50.816;4.416;2024-02-15T03:26:30;13.43;;;2.78;;
25752;SDS011;13600;50.816;4.416;2024-02-15T03:29:04;9.05;;;2.42;;
25752;SDS011;13600;50.816;4.416;2024-02-15T03:31:30;10.50;;;2.00;;
25752;SDS011;13600;50.816;4.416;2024-02-15T03:33:57;10.38;;;2.35;;
25752;SDS011;13600;50.816;4.416;2024-02-15T03:36:24;7.45;;;2.10;;
25752;SDS011;13600;50.816;4.416;2024-02-15T03:38:50;14.60;;;2.80;;
25752;SDS011;13600;50.816;4.416;2024-02-15T03:41:18;9.75;;;2.15;;
25752;SDS011;13600;50.816;4.416;2024-02-15T03:43:43;9.90;;;2.45;;
25752;SDS011;13600;50.816;4.416;2024-02-15T03:46:09;13.02;;;2.50;;
25752;SDS011;13600;50.816;4.416;2024-02-15T03:48:37;11.90;;;1.90;;
25752;SDS011;13600;50.816;4.416;2024-02-15T03:51:03;11.45;;;2.33;;
25752;SDS011;13600;50.816;4.416;2024-02-15T03:53:29;10.75;;;2.70;;
25752;SDS011;13600;50.816;4.416;2024-02-15T03:55:56;9.07;;;2.08;;
25752;SDS011;13600;50.816;4.416;2024-02-15T03:58:22;12.27;;;2.00;;
25752;SDS011;13600;50.816;4.416;2024-02-15T04:00:47;10.10;;;2.42;;
25752;SDS011;13600;50.816;4.416;2024-02-15T04:03:13;10.73;;;1.98;;
25752;SDS011;13600;50.816;4.416;2024-02-15T04:05:39;9.70;;;2.22;;
25752;SDS011;13600;50.816;4.416;2024-02-15T04:08:05;10.77;;;2.30;;
25752;SDS011;13600;50.816;4.416;2024-02-15T04:10:30;12.50;;;2.25;;
25752;SDS011;13600;50.816;4.416;2024-02-15T04:12:56;10.63;;;2.92;;
25752;SDS011;13600;50.816;4.416;2024-02-15T04:15:23;9.50;;;2.80;;
25752;SDS011;13600;50.816;4.416;2024-02-15T04:17:49;8.88;;;2.70;;
25752;SDS011;13600;50.816;4.416;2024-02-15T04:20:21;9.70;;;2.50;;
25752;SDS011;13600;50.816;4.416;2024-02-15T04:22:47;11.73;;;2.80;;
25752;SDS011;13600;50.816;4.416;2024-02-15T04:25:15;9.73;;;2.75;;
25752;SDS011;13600;50.816;4.416;2024-02-15T04:27:43;8.98;;;2.80;;
25752;SDS011;13600;50.816;4.416;2024-02-15T04:30:10;15.13;;;2.90;;
25752;SDS011;13600;50.816;4.416;2024-02-15T04:32:36;13.77;;;2.50;;
25752;SDS011;13600;50.816;4.416;2024-02-15T04:35:02;10.60;;;2.33;;
25752;SDS011;13600;50.816;4.416;2024-02-15T04:37:29;11.27;;;2.35;;
25752;SDS011;13600;50.816;4.416;2024-02-15T04:39:57;8.38;;;2.13;;
25752;SDS011;13600;50.816;4.416;2024-02-15T04:42:23;13.80;;;2.30;;
25752;SDS011;13600;50.816;4.416;2024-02-15T04:44:51;12.43;;;2.40;;
25752;SDS011;13600;50.816;4.416;2024-02-15T04:47:19;9.32;;;2.20;;
25752;SDS011;13600;50.816;4.416;2024-02-15T04:49:45;9.57;;;2.13;;
25752;SDS011;13600;50.816;4.416;2024-02-15T04:52:11;8.50;;;2.10;;
25752;SDS011;13600;50.816;4.416;2024-02-15T04:54:36;11.13;;;2.28;;
25752;SDS011;13600;50.816;4.416;2024-02-15T04:57:03;10.13;;;2.13;;
25752;SDS011;13600;50.816;4.416;2024-02-15T04:59:28;9.98;;;2.00;;
25752;SDS011;13600;50.816;4.416;2024-02-15T05:01:55;8.40;;;2.05;;
25752;SDS011;13600;50.816;4.416;2024-02-15T05:04:23;10.52;;;2.05;;
25752;SDS011;13600;50.816;4.416;2024-02-15T05:06:50;13.07;;;2.67;;
25752;SDS011;13600;50.816;4.416;2024-02-15T05:09:17;9.88;;;2.08;;
25752;SDS011;13600;50.816;4.416;2024-02-15T05:11:43;7.80;;;1.73;;
25752;SDS011;13600;50.816;4.416;2024-02-15T05:14:13;7.10;;;1.67;;
25752;SDS011;13600;50.816;4.416;2024-02-15T05:16:47;6.90;;;1.75;;
25752;SDS011;13600;50.816;4.416;2024-02-15T05:19:13;10.23;;;2.00;;
25752;SDS011;13600;50.816;4.416;2024-02-15T05:21:42;10.30;;;2.05;;
25752;SDS011;13600;50.816;4.416;2024-02-15T05:24:16;6.55;;;1.98;;
25752;SDS011;13600;50.816;4.416;2024-02-15T05:26:43;11.38;;;1.88;;
25752;SDS011;13600;50.816;4.416;2024-02-15T05:29:17;6.32;;;1.60;;
25752;SDS011;13600;50.816;4.416;2024-02-15T05:31:43;5.93;;;1.55;;
25752;SDS011;13600;50.816;4.416;2024-02-15T05:34:10;5.45;;;1.67;;
25752;SDS011;13600;50.816;4.416;2024-02-15T05:36:36;8.25;;;1.60;;
25752;SDS011;13600;50.816;4.416;2024-02-15T05:39:03;10.35;;;1.83;;
25752;SDS011;13600;50.816;4.416;2024-02-15T05:41:30;7.07;;;1.50;;
25752;SDS011;13600;50.816;4.416;2024-02-15T05:43:57;9.68;;;1.80;;
25752;SDS011;13600;50.816;4.416;2024-02-15T05:46:24;5.75;;;1.65;;
25752;SDS011;13600;50.816;4.416;2024-02-15T05:48:50;9.05;;;1.77;;
25752;SDS011;13600;50.816;4.416;2024-02-15T05:51:18;8.50;;;1.38;;
25752;SDS011;13600;50.816;4.416;2024-02-15T05:53:44;7.25;;;1.50;;
25752;SDS011;13600;50.816;4.416;2024-02-15T05:56:10;8.05;;;1.80;;
25752;SDS011;13600;50.816;4.416;2024-02-15T05:58:37;8.63;;;1.60;;
25752;SDS011;13600;50.816;4.416;2024-02-15T06:01:04;6.63;;;1.73;;
25752;SDS011;13600;50.816;4.416;2024-02-15T06:03:31;7.97;;;1.45;;
25752;SDS011;13600;50.816;4.416;2024-02-15T06:06:01;5.53;;;1.33;;
25752;SDS011;13600;50.816;4.416;2024-02-15T06:08:32;9.90;;;1.57;;
25752;SDS011;13600;50.816;4.416;2024-02-15T06:10:58;9.27;;;1.60;;
25752;SDS011;13600;50.816;4.416;2024-02-15T06:13:25;9.05;;;1.80;;
25752;SDS011;13600;50.816;4.416;2024-02-15T06:15:51;8.57;;;1.60;;
25752;SDS011;13600;50.816;4.416;2024-02-15T06:18:22;10.48;;;1.67;;
25752;SDS011;13600;50.816;4.416;2024-02-15T06:20:54;7.63;;;1.75;;
25752;SDS011;13600;50.816;4.416;2024-02-15T06:23:22;6.32;;;1.40;;
25752;SDS011;13600;50.816;4.416;2024-02-15T06:25:50;6.55;;;1.40;;
25752;SDS011;13600;50.816;4.416;2024-02-15T06:28:18;7.68;;;1.73;;
25752;SDS011;13600;50.816;4.416;2024-02-15T06:31:03;10.00;;;1.83;;
25752;SDS011;13600;50.816;4.416;2024-02-15T06:34:01;5.47;;;1.48;;
25752;SDS011;13600;50.816;4.416;2024-02-15T06:36:46;7.28;;;1.55;;
25752;SDS011;13600;50.816;4.416;2024-02-15T06:39:31;7.20;;;1.80;;
25752;SDS011;13600;50.816;4.416;2024-02-15T06:42:09;7.88;;;1.75;;
25752;SDS011;13600;50.816;4.416;2024-02-15T06:44:37;7.95;;;1.63;;
25752;SDS011;13600;50.816;4.416;2024-02-15T06:47:05;6.78;;;1.30;;
25752;SDS011;13600;50.816;4.416;2024-02-15T06:49:32;5.22;;;1.42;;
25752;SDS011;13600;50.816;4.416;2024-02-15T06:52:00;6.65;;;1.55;;
25752;SDS011;13600;50.816;4.416;2024-02-15T06:54:27;7.05;;;1.60;;
25752;SDS011;13600;50.816;4.416;2024-02-15T06:56:53;8.70;;;1.60;;
25752;SDS011;13600;50.816;4.416;2024-02-15T06:59:22;8.70;;;1.42;;
25752;SDS011;13600;50.816;4.416;2024-02-15T07:01:51;4.00;;;1.38;;
25752;SDS011;13600;50.816;4.416;2024-02-15T07:04:20;10.73;;;1.55;;
25752;SDS011;13600;50.816;4.416;2024-02-15T07:06:46;5.75;;;1.75;;
25752;SDS011;13600;50.816;4.416;2024-02-15T07:09:13;8.52;;;1.55;;
25752;SDS011;13600;50.816;4.416;2024-02-15T07:11:44;5.75;;;1.60;;
25752;SDS011;13600;50.816;4.416;2024-02-15T07:14:11;6.25;;;1.42;;
25752;SDS011;13600;50.816;4.416;2024-02-15T07:16:37;10.43;;;1.73;;
25752;SDS011;13600;50.816;4.416;2024-02-15T07:19:03;9.93;;;2.00;;
25752;SDS011;13600;50.816;4.416;2024-02-15T07:21:29;10.05;;;1.75;;
25752;SDS011;13600;50.816;4.416;2024-02-15T07:23:56;15.35;;;2.53;;
25752;SDS011;13600;50.816;4.416;2024-02-15T07:26:25;10.48;;;1.60;;
25752;SDS011;13600;50.816;4.416;2024-02-15T07:28:51;11.27;;;2.08;;
25752;SDS011;13600;50.816;4.416;2024-02-15T07:31:18;8.32;;;2.00;;
25752;SDS011;13600;50.816;4.416;2024-02-15T07:33:46;9.63;;;1.75;;
25752;SDS011;13600;50.816;4.416;2024-02-15T07:36:13;9.60;;;1.50;;
25752;SDS011;13600;50.816;4.416;2024-02-15T07:38:38;5.57;;;1.65;;
25752;SDS011;13600;50.816;4.416;2024-02-15T07:41:05;15.52;;;2.40;;
25752;SDS011;13600;50.816;4.416;2024-02-15T07:43:31;9.05;;;1.83;;
25752;SDS011;13600;50.816;4.416;2024-02-15T07:45:58;4.05;;;1.60;;
25752;SDS011;13600;50.816;4.416;2024-02-15T07:48:24;6.03;;;1.65;;
25752;SDS011;13600;50.816;4.416;2024-02-15T07:50:49;9.70;;;1.70;;
25752;SDS011;13600;50.816;4.416;2024-02-15T07:53:15;9.77;;;1.73;;
25752;SDS011;13600;50.816;4.416;2024-02-15T07:55:42;6.55;;;1.50;;
25752;SDS011;13600;50.816;4.416;2024-02-15T07:58:12;8.00;;;1.45;;
25752;SDS011;13600;50.816;4.416;2024-02-15T08:00:38;6.53;;;1.80;;
25752;SDS011;13600;50.816;4.416;2024-02-15T08:03:04;8.35;;;1.63;;
25752;SDS011;13600;50.816;4.416;2024-02-15T08:05:30;6.72;;;1.67;;
25752;SDS011;13600;50.816;4.416;2024-02-15T08:07:55;5.85;;;1.40;;
25752;SDS011;13600;50.816;4.416;2024-02-15T08:10:22;7.20;;;1.77;;
25752;SDS011;13600;50.816;4.416;2024-02-15T08:12:48;5.80;;;1.63;;
25752;SDS011;13600;50.816;4.416;2024-02-15T08:15:18;7.65;;;1.40;;
25752;SDS011;13600;50.816;4.416;2024-02-15T08:17:44;9.73;;;1.40;;
25752;SDS011;13600;50.816;4.416;2024-02-15T08:20:14;6.85;;;2.00;;
25752;SDS011;13600;50.816;4.416;2024-02-15T08:22:42;7.88;;;1.50;;
25752;SDS011;13600;50.816;4.416;2024-02-15T08:25:09;3.90;;;1.38;;
25752;SDS011;13600;50.816;4.416;2024-02-15T08:27:42;9.20;;;1.60;;
25752;SDS011;13600;50.816;4.416;2024-02-15T08:30:12;4.82;;;1.42;;
25752;SDS011;13600;50.816;4.416;2024-02-15T08:32:39;5.35;;;1.40;;
25752;SDS011;13600;50.816;4.416;2024-02-15T08:35:07;6.60;;;1.52;;
25752;SDS011;13600;50.816;4.416;2024-02-15T08:37:36;5.43;;;1.55;;
25752;SDS011;13600;50.816;4.416;2024-02-15T08:40:03;10.32;;;1.95;;
25752;SDS011;13600;50.816;4.416;2024-02-15T08:42:35;7.03;;;1.85;;
25752;SDS011;13600;50.816;4.416;2024-02-15T08:45:03;4.72;;;1.50;;
25752;SDS011;13600;50.816;4.416;2024-02-15T08:47:29;10.43;;;1.55;;
25752;SDS011;13600;50.816;4.416;2024-02-15T08:49:55;6.60;;;1.60;;
25752;SDS011;13600;50.816;4.416;2024-02-15T08:52:21;4.05;;;1.83;;
25752;SDS011;13600;50.816;4.416;2024-02-15T08:54:46;6.30;;;1.63;;
25752;SDS011;13600;50.816;4.416;2024-02-15T08:57:12;6.35;;;1.55;;
25752;SDS011;13600;50.816;4.416;2024-02-15T08:59:38;9.13;;;1.83;;
25752;SDS011;13600;50.816;4.416;2024-02-15T09:02:04;6.60;;;1.75;;
25752;SDS011;13600;50.816;4.416;2024-02-15T09:04:30;6.20;;;1.48;;
25752;SDS011;13600;50.816;4.416;2024-02-15T09:06:56;3.50;;;1.27;;
25752;SDS011;13600;50.816;4.416;2024-02-15T09:09:22;26.05;;;2.58;;
25752;SDS011;13600;50.816;4.416;2024-02-15T09:11:47;12.02;;;2.00;;
25752;SDS011;13600;50.816;4.416;2024-02-15T09:14:13;7.50;;;1.52;;
25752;SDS011;13600;50.816;4.416;2024-02-15T09:16:39;10.75;;;2.15;;
25752;SDS011;13600;50.816;4.416;2024-02-15T09:19:04;8.10;;;1.75;;
25752;SDS011;13600;50.816;4.416;2024-02-15T09:21:31;8.20;;;1.80;;
25752;SDS011;13600;50.816;4.416;2024-02-15T09:23:59;5.30;;;1.60;;
25752;SDS011;13600;50.816;4.416;2024-02-15T09:26:24;5.70;;;1.45;;
25752;SDS011;13600;50.816;4.416;2024-02-15T09:28:50;5.35;;;1.58;;
25752;SDS011;13600;50.816;4.416;2024-02-15T09:31:18;10.10;;;1.88;;
25752;SDS011;13600;50.816;4.416;2024-02-15T09:33:44;4.75;;;1.73;;
25752;SDS011;13600;50.816;4.416;2024-02-15T09:36:10;5.38;;;1.55;;
25752;SDS011;13600;50.816;4.416;2024-02-15T09:38:37;6.80;;;1.50;;
25752;SDS011;13600;50.816;4.416;2024-02-15T09:41:03;10.35;;;1.50;;
25752;SDS011;13600;50.816;4.416;2024-02-15T09:43:32;8.77;;;1.50;;
25752;SDS011;13600;50.816;4.416;2024-02-15T09:45:59;6.97;;;1.45;;
25752;SDS011;13600;50.816;4.416;2024-02-15T09:48:29;7.13;;;1.27;;
25752;SDS011;13600;50.816;4.416;2024-02-15T09:50:57;11.20;;;1.63;;
25752;SDS011;13600;50.816;4.416;2024-02-15T09:53:23;6.80;;;1.60;;
25752;SDS011;13600;50.816;4.416;2024-02-15T09:55:53;6.80;;;1.63;;
25752;SDS011;13600;50.816;4.416;2024-02-15T09:58:19;7.18;;;1.70;;
25752;SDS011;13600;50.816;4.416;2024-02-15T10:00:48;6.72;;;1.40;;
25752;SDS011;13600;50.816;4.416;2024-02-15T10:03:16;10.25;;;1.70;;
25752;SDS011;13600;50.816;4.416;2024-02-15T10:05:47;3.63;;;1.30;;
25752;SDS011;13600;50.816;4.416;2024-02-15T10:08:14;5.93;;;1.60;;
25752;SDS011;13600;50.816;4.416;2024-02-15T10:10:41;7.05;;;1.52;;
25752;SDS011;13600;50.816;4.416;2024-02-15T10:13:08;5.88;;;1.83;;
25752;SDS011;13600;50.816;4.416;2024-02-15T10:15:38;11.25;;;1.98;;
25752;SDS011;13600;50.816;4.416;2024-02-15T10:18:09;5.15;;;1.73;;
25752;SDS011;13600;50.816;4.416;2024-02-15T10:20:37;6.10;;;1.38;;
25752;SDS011;13600;50.816;4.416;2024-02-15T10:25:33;3.78;;;1.60;;
25752;SDS011;13600;50.816;4.416;2024-02-15T10:28:06;5.95;;;2.33;;
25752;SDS011;13600;50.816;4.416;2024-02-15T10:30:34;9.10;;;2.15;;
25752;SDS011;13600;50.816;4.416;2024-02-15T10:33:04;6.68;;;1.60;;
25752;SDS011;13600;50.816;4.416;2024-02-15T10:35:30;7.25;;;1.08;;
25752;SDS011;13600;50.816;4.416;2024-02-15T10:38:07;5.20;;;1.00;;
25752;SDS011;13600;50.816;4.416;2024-02-15T10:40:34;6.50;;;1.40;;
25752;SDS011;13600;50.816;4.416;2024-02-15T10:43:02;3.55;;;1.35;;
25752;SDS011;13600;50.816;4.416;2024-02-15T10:45:34;5.32;;;1.70;;
25752;SDS011;13600;50.816;4.416;2024-02-15T10:48:02;5.20;;;1.30;;
25752;SDS011;13600;50.816;4.416;2024-02-15T10:50:30;5.57;;;1.35;;
25752;SDS011;13600;50.816;4.416;2024-02-15T10:52:56;6.68;;;1.40;;
25752;SDS011;13600;50.816;4.416;2024-02-15T10:55:40;4.53;;;1.20;;
25752;SDS011;13600;50.816;4.416;2024-02-15T10:58:09;3.10;;;1.30;;
25752;SDS011;13600;50.816;4.416;2024-02-15T11:00:41;5.53;;;1.40;;
25752;SDS011;13600;50.816;4.416;2024-02-15T11:03:10;5.22;;;1.13;;
25752;SDS011;13600;50.816;4.416;2024-02-15T11:05:39;5.07;;;1.48;;
25752;SDS011;13600;50.816;4.416;2024-02-15T11:08:09;7.18;;;1.60;;
25752;SDS011;13600;50.816;4.416;2024-02-15T11:10:35;3.00;;;1.10;;
25752;SDS011;13600;50.816;4.416;2024-02-15T11:13:02;4.43;;;1.58;;
25752;SDS011;13600;50.816;4.416;2024-02-15T11:18:02;3.58;;;1.23;;
25752;SDS011;13600;50.816;4.416;2024-02-15T11:23:00;5.47;;;1.38;;
25752;SDS011;13600;50.816;4.416;2024-02-15T11:25:35;2.30;;;1.05;;
25752;SDS011;13600;50.816;4.416;2024-02-15T11:30:54;4.57;;;1.52;;
25752;SDS011;13600;50.816;4.416;2024-02-15T11:33:25;6.57;;;1.33;;
25752;SDS011;13600;50.816;4.416;2024-02-15T11:36:04;4.25;;;1.50;;
25752;SDS011;13600;50.816;4.416;2024-02-15T11:38:30;4.88;;;1.15;;
25752;SDS011;13600;50.816;4.416;2024-02-15T11:46:12;4.88;;;1.17;;
25752;SDS011;13600;50.816;4.416;2024-02-15T11:48:49;6.23;;;1.40;;
25752;SDS011;13600;50.816;4.416;2024-02-15T11:51:34;7.30;;;1.55;;
25752;SDS011;13600;50.816;4.416;2024-02-15T11:54:10;6.22;;;1.50;;
25752;SDS011;13600;50.816;4.416;2024-02-15T11:56:56;5.32;;;1.60;;
25752;SDS011;13600;50.816;4.416;2024-02-15T11:59:42;5.38;;;1.42;;
25752;SDS011;13600;50.816;4.416;2024-02-15T12:02:28;4.53;;;1.60;;
25752;SDS011;13600;50.816;4.416;2024-02-15T12:05:15;6.68;;;1.50;;
25752;SDS011;13600;50.816;4.416;2024-02-15T12:08:00;6.43;;;1.45;;
25752;SDS011;13600;50.816;4.416;2024-02-15T12:13:39;7.95;;;1.85;;
25752;SDS011;13600;50.816;4.416;2024-02-15T12:19:09;4.00;;;1.50;;
25752;SDS011;13600;50.816;4.416;2024-02-15T12:21:37;3.75;;;1.23;;
25752;SDS011;13600;50.816;4.416;2024-02-15T12:24:06;6.15;;;1.52;;
25752;SDS011;13600;50.816;4.416;2024-02-15T12:26:32;6.20;;;1.35;;
25752;SDS011;13600;50.816;4.416;2024-02-15T12:28:59;11.88;;;1.60;;
25752;SDS011;13600;50.816;4.416;2024-02-15T12:31:27;3.13;;;1.05;;
25752;SDS011;13600;50.816;4.416;2024-02-15T12:34:01;3.78;;;1.13;;
25752;SDS011;13600;50.816;4.416;2024-02-15T12:36:32;8.80;;;1.42;;
25752;SDS011;13600;50.816;4.416;2024-02-15T12:39:06;6.45;;;1.40;;
25752;SDS011;13600;50.816;4.416;2024-02-15T12:41:39;3.70;;;1.40;;
25752;SDS011;13600;50.816;4.416;2024-02-15T12:44:08;3.25;;;0.93;;
25752;SDS011;13600;50.816;4.416;2024-02-15T12:46:35;4.72;;;1.15;;
25752;SDS011;13600;50.816;4.416;2024-02-15T12:49:07;2.55;;;1.00;;
25752;SDS011;13600;50.816;4.416;2024-02-15T12:51:38;3.28;;;0.93;;
25752;SDS011;13600;50.816;4.416;2024-02-15T12:54:09;4.28;;;1.10;;
25752;SDS011;13600;50.816;4.416;2024-02-15T12:56:39;6.13;;;1.23;;
25752;SDS011;13600;50.816;4.416;2024-02-15T12:59:05;2.38;;;0.85;;
25752;SDS011;13600;50.816;4.416;2024-02-15T13:01:31;3.03;;;1.10;;
25752;SDS011;13600;50.816;4.416;2024-02-15T13:03:58;6.25;;;1.20;;
25752;SDS011;13600;50.816;4.416;2024-02-15T13:06:26;4.47;;;1.27;;
25752;SDS011;13600;50.816;4.416;2024-02-15T13:08:51;4.03;;;1.17;;
25752;SDS011;13600;50.816;4.416;2024-02-15T13:11:17;7.47;;;1.35;;
25752;SDS011;13600;50.816;4.416;2024-02-15T13:13:43;5.70;;;1.02;;
25752;SDS011;13600;50.816;4.416;2024-02-15T13:16:09;4.43;;;1.10;;
25752;SDS011;13600;50.816;4.416;2024-02-15T13:18:36;5.78;;;1.33;;
25752;SDS011;13600;50.816;4.416;2024-02-15T13:21:02;4.32;;;1.30;;
25752;SDS011;13600;50.816;4.416;2024-02-15T13:23:30;7.30;;;1.00;;
25752;SDS011;13600;50.816;4.416;2024-02-15T13:25:58;5.03;;;0.85;;
25752;SDS011;13600;50.816;4.416;2024-02-15T13:28:35;3.33;;;0.85;;
25752;SDS011;13600;50.816;4.416;2024-02-15T13:31:01;4.07;;;0.85;;
25752;SDS011;13600;50.816;4.416;2024-02-15T13:33:28;2.65;;;0.85;;
25752;SDS011;13600;50.816;4.416;2024-02-15T13:35:56;2.90;;;0.90;;
25752;SDS011;13600;50.816;4.416;2024-02-15T13:38:23;3.50;;;0.85;;
25752;SDS011;13600;50.816;4.416;2024-02-15T13:40:49;3.53;;;0.75;;
25752;SDS011;13600;50.816;4.416;2024-02-15T13:43:16;3.28;;;1.00;;
25752;SDS011;13600;50.816;4.416;2024-02-15T13:45:42;4.13;;;0.90;;
25752;SDS011;13600;50.816;4.416;2024-02-15T13:48:09;3.90;;;1.10;;
25752;SDS011;13600;50.816;4.416;2024-02-15T13:50:38;1.92;;;0.75;;
25752;SDS011;13600;50.816;4.416;2024-02-15T13:53:05;3.30;;;1.00;;
25752;SDS011;13600;50.816;4.416;2024-02-15T13:55:32;3.33;;;0.90;;
25752;SDS011;13600;50.816;4.416;2024-02-15T13:58:01;2.03;;;0.88;;
25752;SDS011;13600;50.816;4.416;2024-02-15T14:00:27;4.20;;;0.68;;
25752;SDS011;13600;50.816;4.416;2024-02-15T14:02:58;5.57;;;0.60;;
25752;SDS011;13600;50.816;4.416;2024-02-15T14:05:27;1.92;;;0.75;;
25752;SDS011;13600;50.816;4.416;2024-02-15T14:08:03;4.60;;;0.80;;
25752;SDS011;13600;50.816;4.416;2024-02-15T14:10:36;1.92;;;0.63;;
25752;SDS011;13600;50.816;4.416;2024-02-15T14:13:02;1.40;;;0.88;;
25752;SDS011;13600;50.816;4.416;2024-02-15T14:15:39;4.15;;;1.17;;
25752;SDS011;13600;50.816;4.416;2024-02-15T14:18:12;3.15;;;0.90;;
25752;SDS011;13600;50.816;4.416;2024-02-15T14:20:44;4.32;;;0.73;;
25752;SDS011;13600;50.816;4.416;2024-02-15T14:23:14;2.55;;;0.75;;
25752;SDS011;13600;50.816;4.416;2024-02-15T14:25:47;5.45;;;1.05;;
25752;SDS011;13600;50.816;4.416;2024-02-15T14:28:15;2.20;;;0.75;;
25752;SDS011;13600;50.816;4.416;2024-02-15T14:30:40;3.20;;;0.80;;
25752;SDS011;13600;50.816;4.416;2024-02-15T14:35:51;2.58;;;0.98;;
25752;SDS011;13600;50.816;4.416;2024-02-15T14:38:18;3.63;;;0.93;;
25752;SDS011;13600;50.816;4.416;2024-02-15T14:40:47;5.43;;;1.10;;
25752;SDS011;13600;50.816;4.416;2024-02-15T14:43:23;4.43;;;1.42;;
25752;SDS011;13600;50.816;4.416;2024-02-15T14:45:51;6.88;;;1.30;;
25752;SDS011;13600;50.816;4.416;2024-02-15T14:48:21;2.85;;;1.00;;
25752;SDS011;13600;50.816;4.416;2024-02-15T14:50:50;2.75;;;0.90;;
25752;SDS011;13600;50.816;4.416;2024-02-15T14:53:16;1.58;;;0.80;;
25752;SDS011;13600;50.816;4.416;2024-02-15T14:55:44;5.07;;;1.13;;
25752;SDS011;13600;50.816;4.416;2024-02-15T15:00:47;3.65;;;0.98;;
25752;SDS011;13600;50.816;4.416;2024-02-15T15:11:33;5.18;;;1.08;;
25752;SDS011;13600;50.816;4.416;2024-02-15T15:14:17;2.90;;;1.00;;
25752;SDS011;13600;50.816;4.416;2024-02-15T15:16:44;4.13;;;1.10;;
25752;SDS011;13600;50.816;4.416;2024-02-15T15:19:10;3.72;;;0.90;;
25752;SDS011;13600;50.816;4.416;2024-02-15T15:21:35;4.97;;;0.95;;
25752;SDS011;13600;50.816;4.416;2024-02-15T15:24:01;7.43;;;1.10;;